createdAt,value
2023-11-15T00:01:23.404Z,49.44
2023-11-15T00:03:50.420Z,49.07
2023-11-15T00:06:17.634Z,49.75
2023-11-15T00:08:44.509Z,49.49
2023-11-15T00:11:11.371Z,49.11
2023-11-15T00:13:38.296Z,49.56
2023-11-15T00:16:05.863Z,50.12
2023-11-15T00:18:32.606Z,52.76
2023-11-15T00:20:59.594Z,50.13
2023-11-15T00:23:27.699Z,50.11
2023-11-15T00:25:54.565Z,54.72
2023-11-15T00:28:21.469Z,51.60
2023-11-15T00:30:48.276Z,51.50
2023-11-15T00:33:15.206Z,50.30
2023-11-15T00:35:42.104Z,49.58
2023-11-15T00:38:09.246Z,49.07
2023-11-15T00:40:36.991Z,48.98
2023-11-15T00:43:04.882Z,49.52
2023-11-15T00:45:31.969Z,49.48
2023-11-15T00:47:58.765Z,49.66
2023-11-15T00:50:25.854Z,50.75
2023-11-15T00:52:52.543Z,51.73
2023-11-15T00:55:19.252Z,50.85
2023-11-15T00:57:46.800Z,50.43
2023-11-15T01:00:33.948Z,51.04
2023-11-15T01:03:01.049Z,51.18
2023-11-15T01:05:30.189Z,51.14
2023-11-15T01:07:57.195Z,50.96
2023-11-15T01:10:26.176Z,51.04
2023-11-15T01:12:54.675Z,50.80
2023-11-15T01:15:23.182Z,49.84
2023-11-15T01:17:51.757Z,49.08
2023-11-15T01:20:19.096Z,49.37
2023-11-15T01:22:46.811Z,48.53
2023-11-15T01:25:14.862Z,48.25
2023-11-15T01:27:41.602Z,48.01
2023-11-15T01:30:10.009Z,47.61
2023-11-15T01:32:36.906Z,48.01
2023-11-15T01:35:04.087Z,48.14
2023-11-15T01:37:30.722Z,49.78
2023-11-15T01:39:57.498Z,50.06
2023-11-15T01:42:24.137Z,50.24
2023-11-15T01:44:50.847Z,54.36
2023-11-15T01:47:17.609Z,54.72
2023-11-15T01:49:44.450Z,57.91
2023-11-15T01:52:11.136Z,58.68
2023-11-15T01:54:37.910Z,60.01
2023-11-15T01:57:05.104Z,59.90
2023-11-15T01:59:32.141Z,61.25
2023-11-15T02:01:58.900Z,62.84
2023-11-15T02:04:25.565Z,61.25
2023-11-15T02:06:52.948Z,60.37
2023-11-15T02:09:19.664Z,61.74
2023-11-15T02:11:46.442Z,60.66
2023-11-15T02:14:13.141Z,60.85
2023-11-15T02:16:40.094Z,57.58
2023-11-15T02:19:06.950Z,56.78
2023-11-15T02:21:33.620Z,57.03
2023-11-15T02:24:00.572Z,58.03
2023-11-15T02:26:27.388Z,56.25
2023-11-15T02:28:55.245Z,58.47
2023-11-15T02:31:22.143Z,56.77
2023-11-15T02:33:48.797Z,56.20
2023-11-15T02:36:15.564Z,55.73
2023-11-15T02:39:51.060Z,56.23
2023-11-15T02:42:17.781Z,52.94
2023-11-15T02:44:44.464Z,51.32
2023-11-15T02:47:11.201Z,54.41
2023-11-15T02:49:38.525Z,54.07
2023-11-15T02:52:05.627Z,54.48
2023-11-15T02:54:32.312Z,57.37
2023-11-15T02:56:59.057Z,56.34
2023-11-15T02:59:25.760Z,56.12
2023-11-15T03:01:52.653Z,56.44
2023-11-15T03:04:19.429Z,59.35
2023-11-15T03:06:46.170Z,56.30
2023-11-15T03:09:14.781Z,55.20
2023-11-15T03:11:41.561Z,56.82
2023-11-15T03:14:08.254Z,55.81
2023-11-15T03:16:35.200Z,58.65
2023-11-15T03:19:02.304Z,56.57
2023-11-15T03:21:29.489Z,55.96
2023-11-15T03:23:56.324Z,57.81
2023-11-15T03:26:23.007Z,54.99
2023-11-15T03:28:49.835Z,55.68
2023-11-15T03:31:16.487Z,57.31
2023-11-15T03:33:48.593Z,55.32
2023-11-15T03:36:17.054Z,54.15
2023-11-15T03:38:43.948Z,53.45
2023-11-15T03:41:13.736Z,54.09
2023-11-15T03:43:41.227Z,54.12
2023-11-15T03:46:07.986Z,53.27
2023-11-15T03:48:35.036Z,53.52
2023-11-15T03:51:01.822Z,54.59
2023-11-15T03:53:28.630Z,53.57
2023-11-15T03:55:55.394Z,52.63
2023-11-15T03:58:22.181Z,52.74
2023-11-15T04:00:49.401Z,52.33
2023-11-15T04:03:17.738Z,52.03
2023-11-15T04:05:45.875Z,52.10
2023-11-15T04:08:13.865Z,54.58
2023-11-15T04:10:40.649Z,54.68
2023-11-15T04:13:07.364Z,54.74
2023-11-15T04:15:34.087Z,54.78
2023-11-15T04:18:00.816Z,56.50
2023-11-15T04:20:28.542Z,56.15
2023-11-15T04:22:55.246Z,56.05
2023-11-15T04:25:21.875Z,59.05
2023-11-15T04:27:48.686Z,58.25
2023-11-15T04:30:17.121Z,56.14
2023-11-15T04:32:45.400Z,56.18
2023-11-15T04:35:15.997Z,59.22
2023-11-15T04:37:42.699Z,62.08
2023-11-15T04:40:11.478Z,62.79
2023-11-15T04:42:38.478Z,59.05
2023-11-15T04:45:06.508Z,59.40
2023-11-15T04:47:33.747Z,61.86
2023-11-15T04:50:02.299Z,59.99
2023-11-15T04:52:29.235Z,56.14
2023-11-15T04:54:55.943Z,57.75
2023-11-15T04:57:26.339Z,57.44
2023-11-15T04:59:58.814Z,57.11
2023-11-15T05:02:28.868Z,55.10
2023-11-15T05:04:56.381Z,54.88
2023-11-15T05:07:26.390Z,56.66
2023-11-15T05:09:53.059Z,55.05
2023-11-15T05:12:19.773Z,53.84
2023-11-15T05:14:46.685Z,57.83
2023-11-15T05:17:13.616Z,57.54
2023-11-15T05:19:40.521Z,56.12
2023-11-15T05:22:07.209Z,57.57
2023-11-15T05:24:38.675Z,60.10
2023-11-15T05:27:05.493Z,59.63
2023-11-15T05:29:35.623Z,56.83
2023-11-15T05:32:02.295Z,54.61
2023-11-15T05:34:29.496Z,56.13
2023-11-15T05:36:56.299Z,55.80
2023-11-15T05:39:23.670Z,55.60
2023-11-15T05:44:32.456Z,57.78
2023-11-15T05:47:03.654Z,55.34
2023-11-15T05:49:39.278Z,56.10
2023-11-15T05:52:06.560Z,56.33
2023-11-15T05:54:34.995Z,56.54
2023-11-15T05:57:02.378Z,54.44
2023-11-15T05:59:29.165Z,53.59
2023-11-15T06:02:14.709Z,54.17
2023-11-15T06:04:41.530Z,53.73
2023-11-15T06:07:08.268Z,55.00
2023-11-15T06:09:34.922Z,57.55
2023-11-15T06:12:02.399Z,55.88
2023-11-15T06:14:29.097Z,55.86
2023-11-15T06:16:55.716Z,54.77
2023-11-15T06:19:24.366Z,53.25
2023-11-15T06:21:51.163Z,52.23
2023-11-15T06:24:17.847Z,51.43
2023-11-15T06:26:45.592Z,51.22
2023-11-15T06:29:12.564Z,51.41
2023-11-15T06:31:39.463Z,54.49
2023-11-15T06:34:07.030Z,53.34
2023-11-15T06:36:36.202Z,53.22
2023-11-15T06:39:07.309Z,55.14
2023-11-15T06:41:35.866Z,53.96
2023-11-15T06:44:04.775Z,52.64
2023-11-15T06:46:31.459Z,51.72
2023-11-15T06:48:58.155Z,50.42
2023-11-15T06:51:25.084Z,50.97
2023-11-15T06:53:54.576Z,49.79
2023-11-15T06:56:21.562Z,51.97
2023-11-15T06:58:48.363Z,50.42
2023-11-15T07:01:15.073Z,49.57
2023-11-15T07:03:45.027Z,49.35
2023-11-15T07:06:12.003Z,48.96
2023-11-15T07:08:38.819Z,50.74
2023-11-15T07:11:09.292Z,51.49
2023-11-15T07:13:36.253Z,50.04
2023-11-15T07:16:05.513Z,48.91
2023-11-15T07:18:35.745Z,48.23
2023-11-15T07:21:02.476Z,51.55
2023-11-15T07:23:29.318Z,50.22
2023-11-15T07:25:56.615Z,49.65
2023-11-15T07:28:24.760Z,47.79
2023-11-15T07:30:52.277Z,48.48
2023-11-15T07:33:22.583Z,47.84
2023-11-15T07:35:50.188Z,46.97
2023-11-15T07:38:17.339Z,47.23
2023-11-15T07:40:44.080Z,48.40
2023-11-15T07:43:11.994Z,48.62
2023-11-15T07:45:39.895Z,47.84
2023-11-15T07:48:11.650Z,47.30
2023-11-15T07:50:38.906Z,46.58
2023-11-15T07:53:05.729Z,47.74
2023-11-15T07:55:33.220Z,47.03
2023-11-15T07:57:59.940Z,48.54
2023-11-15T08:00:26.670Z,49.91
2023-11-15T08:02:54.649Z,48.07
2023-11-15T08:05:21.849Z,46.99
2023-11-15T08:07:49.814Z,45.80
2023-11-15T08:10:16.872Z,45.71
2023-11-15T08:12:49.483Z,45.61
2023-11-15T08:15:17.624Z,48.40
2023-11-15T08:17:48.191Z,46.40
2023-11-15T08:20:16.030Z,47.04
2023-11-15T08:22:43.221Z,46.27
2023-11-15T08:25:11.055Z,46.52
2023-11-15T08:27:39.904Z,45.97
2023-11-15T08:30:11.598Z,45.42
2023-11-15T08:32:38.642Z,45.31
2023-11-15T08:35:06.883Z,47.75
2023-11-15T08:37:33.834Z,46.98
2023-11-15T08:40:03.636Z,45.99
2023-11-15T08:42:32.069Z,46.21
2023-11-15T08:44:58.780Z,46.01
2023-11-15T08:47:26.449Z,46.71
2023-11-15T08:49:54.903Z,46.48
2023-11-15T08:52:25.003Z,47.40
2023-11-15T08:54:52.357Z,47.70
2023-11-15T08:57:19.183Z,47.07
2023-11-15T08:59:46.776Z,46.80
2023-11-15T09:02:16.415Z,46.05
2023-11-15T09:04:43.478Z,49.12
2023-11-15T09:07:12.049Z,49.88
2023-11-15T09:09:43.069Z,48.21
2023-11-15T09:12:11.544Z,48.06
2023-11-15T09:14:40.040Z,47.42
2023-11-15T09:17:14.022Z,47.48
2023-11-15T09:19:40.847Z,47.69
2023-11-15T09:22:07.723Z,47.72
2023-11-15T09:24:36.890Z,47.88
2023-11-15T09:27:03.738Z,52.30
2023-11-15T09:29:30.446Z,50.44
2023-11-15T09:31:57.281Z,53.65
2023-11-15T09:34:26.741Z,57.62
2023-11-15T09:37:03.494Z,56.47
2023-11-15T09:39:31.643Z,57.68
2023-11-15T09:41:59.001Z,57.39
2023-11-15T09:44:27.259Z,59.50
2023-11-15T09:46:55.547Z,60.47
2023-11-15T09:49:25.828Z,61.26
2023-11-15T09:51:54.021Z,61.27
2023-11-15T09:54:24.838Z,62.58
2023-11-15T09:56:51.837Z,64.45
2023-11-15T09:59:19.573Z,65.03
2023-11-15T10:01:49.712Z,65.51
2023-11-15T10:04:27.362Z,66.83
2023-11-15T10:07:00.764Z,67.29
2023-11-15T10:09:44.039Z,66.06
2023-11-15T10:12:11.741Z,67.31
2023-11-15T10:15:06.507Z,66.99
2023-11-15T10:17:41.599Z,66.83
2023-11-15T10:20:23.299Z,67.04
2023-11-15T10:22:52.068Z,66.89
2023-11-15T10:25:19.386Z,66.43
2023-11-15T10:27:46.216Z,67.33
2023-11-15T10:30:17.333Z,69.01
2023-11-15T10:32:49.563Z,67.57
2023-11-15T10:35:31.202Z,65.37
2023-11-15T10:37:58.659Z,68.16
2023-11-15T10:40:30.658Z,66.76
2023-11-15T10:43:00.138Z,67.52
2023-11-15T10:45:31.444Z,66.49
2023-11-15T10:48:06.891Z,67.85
2023-11-15T10:50:35.966Z,65.16
2023-11-15T10:53:03.714Z,64.08
2023-11-15T10:55:32.538Z,64.57
2023-11-15T10:58:04.296Z,65.78
2023-11-15T11:00:32.757Z,65.86
2023-11-15T11:02:59.783Z,65.44
2023-11-15T11:05:50.156Z,64.68
2023-11-15T11:08:36.171Z,66.14
2023-11-15T11:11:12.250Z,66.13
2023-11-15T11:13:42.046Z,67.47
2023-11-15T11:16:34.906Z,65.65
2023-11-15T11:19:23.492Z,64.45
2023-11-15T11:22:13.515Z,63.92
2023-11-15T11:24:47.463Z,63.55
2023-11-15T11:27:17.623Z,62.09
2023-11-15T11:29:50.473Z,64.77
2023-11-15T11:32:27.906Z,64.45
2023-11-15T11:35:07.893Z,63.71
2023-11-15T11:37:48.764Z,64.06
2023-11-15T11:40:16.858Z,63.49
2023-11-15T11:42:45.444Z,63.59
2023-11-15T11:45:14.095Z,63.16
2023-11-15T11:47:47.614Z,63.27
2023-11-15T11:50:34.406Z,63.14
2023-11-15T11:53:01.508Z,62.83
2023-11-15T11:55:32.840Z,62.10
2023-11-15T11:58:03.940Z,62.73
2023-11-15T12:00:30.787Z,62.31
2023-11-15T12:03:01.330Z,61.50
2023-11-15T12:05:33.622Z,61.55
2023-11-15T12:08:02.773Z,61.29
2023-11-15T12:10:29.922Z,61.21
2023-11-15T12:13:00.643Z,61.16
2023-11-15T12:15:28.563Z,59.16
2023-11-15T12:17:58.397Z,59.52
2023-11-15T12:20:51.425Z,60.41
2023-11-15T12:23:18.627Z,60.09
2023-11-15T12:25:48.946Z,60.03
2023-11-15T12:28:27.589Z,59.60
2023-11-15T12:30:55.955Z,59.76
2023-11-15T12:33:23.989Z,60.55
2023-11-15T12:35:54.316Z,60.46
2023-11-15T12:38:21.442Z,61.51
2023-11-15T12:40:48.870Z,62.62
2023-11-15T12:43:20.814Z,62.47
2023-11-15T12:45:48.138Z,61.95
2023-11-15T12:48:16.181Z,61.55
2023-11-15T12:50:45.202Z,62.30
2023-11-15T12:53:15.892Z,62.02
2023-11-15T12:55:50.778Z,63.83
2023-11-15T12:58:40.794Z,64.25
2023-11-15T13:01:09.157Z,63.81
2023-11-15T13:03:39.887Z,65.13
2023-11-15T13:06:14.485Z,63.34
2023-11-15T13:08:44.693Z,63.40
2023-11-15T13:11:15.951Z,63.30
2023-11-15T13:13:45.691Z,62.26
2023-11-15T13:16:16.427Z,61.34
2023-11-15T13:18:46.135Z,61.34
2023-11-15T13:21:14.497Z,60.53
2023-11-15T13:23:46.573Z,60.41
2023-11-15T13:26:16.951Z,58.87
2023-11-15T13:28:45.463Z,58.24
2023-11-15T13:31:16.268Z,57.79
2023-11-15T13:33:46.544Z,56.95
2023-11-15T13:36:17.211Z,56.04
2023-11-15T13:38:44.117Z,56.57
2023-11-15T13:41:14.350Z,56.70
2023-11-15T13:43:41.962Z,57.05
2023-11-15T13:46:09.812Z,55.97
2023-11-15T13:48:37.496Z,57.60
2023-11-15T13:51:08.023Z,55.50
2023-11-15T13:53:37.937Z,57.60
2023-11-15T13:56:06.391Z,56.94
2023-11-15T13:58:33.214Z,59.44
2023-11-15T14:01:00.329Z,58.84
2023-11-15T14:03:30.245Z,58.73
2023-11-15T14:06:01.333Z,57.50
2023-11-15T14:08:47.496Z,59.38
2023-11-15T14:11:23.500Z,60.12
2023-11-15T14:13:50.286Z,60.62
2023-11-15T14:16:17.162Z,60.23
2023-11-15T14:18:48.762Z,61.83
2023-11-15T14:21:15.857Z,60.31
2023-11-15T14:23:42.642Z,59.01
2023-11-15T14:26:09.884Z,58.51
2023-11-15T14:28:36.951Z,56.80
2023-11-15T14:31:05.391Z,57.03
2023-11-15T14:33:37.897Z,57.84
2023-11-15T14:36:07.382Z,56.89
2023-11-15T14:38:34.056Z,55.95
2023-11-15T14:41:28.138Z,55.29
2023-11-15T14:43:55.205Z,55.27
2023-11-15T14:46:26.744Z,57.56
2023-11-15T14:48:53.922Z,56.22
2023-11-15T14:51:21.638Z,55.60
2023-11-15T14:53:56.685Z,55.19
2023-11-15T14:56:24.288Z,55.28
2023-11-15T14:58:54.699Z,55.50
2023-11-15T15:01:38.381Z,55.33
2023-11-15T15:04:50.572Z,54.92
2023-11-15T15:07:17.558Z,55.67
2023-11-15T15:09:48.395Z,55.29
2023-11-15T15:12:15.707Z,53.45
2023-11-15T15:14:42.970Z,53.45
2023-11-15T15:17:21.261Z,52.97
2023-11-15T15:19:52.728Z,53.06
2023-11-15T15:22:19.481Z,53.18
2023-11-15T15:24:54.024Z,54.29
2023-11-15T15:27:28.909Z,54.36
2023-11-15T15:30:02.576Z,55.01
2023-11-15T15:32:29.461Z,55.93
2023-11-15T15:35:02.049Z,55.68
2023-11-15T15:37:29.488Z,55.80
2023-11-15T15:40:01.299Z,55.76
2023-11-15T15:42:28.504Z,54.97
2023-11-15T15:44:59.408Z,55.62
2023-11-15T15:47:35.620Z,57.55
2023-11-15T15:50:02.300Z,56.34
2023-11-15T15:52:29.011Z,56.67
2023-11-15T15:55:00.675Z,56.15
2023-11-15T15:57:27.800Z,56.84
2023-11-15T15:59:54.495Z,56.25
2023-11-15T16:02:26.995Z,55.50
2023-11-15T16:04:56.111Z,55.32
2023-11-15T16:07:22.785Z,56.18
2023-11-15T16:09:49.402Z,56.21
2023-11-15T16:12:16.128Z,57.11
2023-11-15T16:14:42.873Z,55.69
2023-11-15T16:17:09.638Z,55.71
2023-11-15T16:19:37.266Z,54.37
2023-11-15T16:22:04.140Z,53.68
2023-11-15T16:24:33.364Z,53.58
2023-11-15T16:27:00.275Z,53.13
2023-11-15T16:29:26.967Z,53.18
2023-11-15T16:31:53.609Z,52.46
2023-11-15T16:34:21.646Z,52.65
2023-11-15T16:36:48.376Z,54.03
2023-11-15T16:39:15.190Z,53.73
2023-11-15T16:41:51.450Z,54.18
2023-11-15T16:44:19.984Z,52.86
2023-11-15T16:46:48.494Z,54.46
2023-11-15T16:49:16.467Z,53.68
2023-11-15T16:51:44.168Z,54.19
2023-11-15T16:54:11.206Z,53.93
2023-11-15T16:56:37.962Z,53.39
2023-11-15T16:59:04.773Z,52.47
2023-11-15T17:01:35.203Z,53.03
2023-11-15T17:04:02.759Z,52.55
2023-11-15T17:06:29.819Z,53.14
2023-11-15T17:08:56.585Z,52.64
2023-11-15T17:11:24.705Z,52.68
2023-11-15T17:13:51.450Z,51.20
2023-11-15T17:16:19.746Z,51.85
2023-11-15T17:18:50.050Z,51.14
2023-11-15T17:21:17.046Z,51.16
2023-11-15T17:23:45.239Z,51.11
2023-11-15T17:26:13.601Z,50.37
2023-11-15T17:28:44.267Z,51.99
2023-11-15T17:31:12.209Z,54.08
2023-11-15T17:33:44.239Z,53.85
2023-11-15T17:36:11.144Z,53.82
2023-11-15T17:38:37.862Z,56.09
2023-11-15T17:41:05.388Z,56.37
2023-11-15T17:43:37.248Z,56.43
2023-11-15T17:46:04.249Z,55.70
2023-11-15T17:48:32.065Z,55.46
2023-11-15T17:51:01.110Z,55.93
2023-11-15T17:56:33.297Z,53.64
2023-11-15T17:59:00.608Z,51.95
2023-11-15T18:01:36.035Z,52.02
2023-11-15T18:04:03.204Z,52.92
2023-11-15T18:06:30.149Z,52.52
2023-11-15T18:08:57.574Z,51.63
2023-11-15T18:11:25.101Z,51.81
2023-11-15T18:13:52.943Z,52.87
2023-11-15T18:16:20.777Z,53.83
2023-11-15T18:18:47.601Z,56.76
2023-11-15T18:21:21.066Z,56.47
2023-11-15T18:23:50.710Z,56.55
2023-11-15T18:26:24.140Z,56.29
2023-11-15T18:28:50.854Z,57.32
2023-11-15T18:31:17.642Z,57.35
2023-11-15T18:33:44.549Z,57.40
2023-11-15T18:36:12.049Z,57.57
2023-11-15T18:38:38.863Z,56.52
2023-11-15T18:41:06.063Z,55.60
2023-11-15T18:43:32.766Z,57.06
2023-11-15T18:45:59.668Z,57.73
2023-11-15T18:48:27.302Z,57.63
2023-11-15T18:50:54.116Z,56.64
2023-11-15T18:53:20.916Z,54.70
2023-11-15T18:55:47.611Z,56.66
2023-11-15T18:58:14.423Z,58.91
2023-11-15T19:00:42.188Z,57.79
2023-11-15T19:03:09.104Z,57.89
2023-11-15T19:05:36.070Z,58.76
2023-11-15T19:08:03.764Z,58.24
2023-11-15T19:10:33.505Z,54.89
2023-11-15T19:13:00.427Z,58.11
2023-11-15T19:15:27.482Z,56.37
2023-11-15T19:17:57.379Z,57.30
2023-11-15T19:20:30.163Z,54.00
2023-11-15T19:22:57.050Z,53.42
2023-11-15T19:25:24.163Z,54.98
2023-11-15T19:27:50.897Z,56.12
2023-11-15T19:30:18.715Z,55.22
2023-11-15T19:32:45.833Z,55.76
2023-11-15T19:35:16.331Z,55.26
2023-11-15T19:37:44.556Z,54.78
2023-11-15T19:40:12.644Z,57.04
2023-11-15T19:42:39.935Z,57.38
2023-11-15T19:45:08.934Z,56.19
2023-11-15T19:47:36.249Z,54.40
2023-11-15T19:50:04.040Z,52.91
2023-11-15T19:52:30.835Z,56.00
2023-11-15T19:54:58.858Z,57.27
2023-11-15T19:57:27.918Z,56.38
2023-11-15T19:59:58.745Z,55.22
2023-11-15T20:02:31.583Z,56.09
2023-11-15T20:05:05.538Z,55.00
2023-11-15T20:07:33.460Z,56.24
2023-11-15T20:10:00.215Z,55.73
2023-11-15T20:12:29.094Z,56.48
2023-11-15T20:14:55.793Z,56.92
2023-11-15T20:17:22.759Z,57.35
2023-11-15T20:19:49.506Z,57.38
2023-11-15T20:22:16.241Z,57.44
2023-11-15T20:24:42.910Z,55.82
2023-11-15T20:27:09.664Z,57.08
2023-11-15T20:29:37.414Z,57.06
2023-11-15T20:32:04.452Z,56.34
2023-11-15T20:34:31.185Z,57.48
2023-11-15T20:37:01.126Z,58.98
2023-11-15T20:39:31.170Z,60.49
2023-11-15T20:41:59.567Z,58.89
2023-11-15T20:44:26.290Z,58.02
2023-11-15T20:46:53.075Z,57.42
2023-11-15T20:49:20.109Z,56.25
2023-11-15T20:51:50.238Z,56.58
2023-11-15T20:54:18.983Z,58.01
2023-11-15T20:56:46.116Z,57.91
2023-11-15T20:59:13.548Z,60.33
2023-11-15T21:01:41.024Z,60.62
2023-11-15T21:04:14.141Z,61.45
2023-11-15T21:06:41.037Z,60.88
2023-11-15T21:09:10.856Z,59.91
2023-11-15T21:11:40.284Z,60.17
2023-11-15T21:14:08.997Z,60.42
2023-11-15T21:19:46.796Z,60.07
2023-11-15T21:22:13.468Z,59.17
2023-11-15T21:24:42.419Z,58.54
2023-11-15T21:27:16.126Z,59.36
2023-11-15T21:29:42.841Z,60.33
2023-11-15T21:32:11.366Z,60.93
2023-11-15T21:34:38.409Z,61.17
2023-11-15T21:37:13.333Z,61.95
2023-11-15T21:39:44.847Z,63.19
2023-11-15T21:42:12.421Z,63.54
2023-11-15T21:44:39.206Z,63.24
2023-11-15T21:47:05.886Z,65.60
2023-11-15T21:49:32.555Z,63.02
2023-11-15T21:51:59.199Z,64.37
2023-11-15T21:54:25.999Z,63.83
2023-11-15T21:56:52.697Z,62.07
2023-11-15T21:59:20.096Z,60.05
2023-11-15T22:01:46.981Z,62.73
2023-11-15T22:04:14.306Z,60.37
2023-11-15T22:06:46.615Z,63.24
2023-11-15T22:09:20.076Z,64.05
2023-11-15T22:11:48.447Z,63.77
2023-11-15T22:14:18.060Z,63.19
2023-11-15T22:16:45.764Z,60.92
2023-11-15T22:19:12.463Z,58.86
2023-11-15T22:21:39.426Z,57.85
2023-11-15T22:24:06.495Z,58.40
2023-11-15T22:26:33.199Z,58.00
2023-11-15T22:28:59.852Z,57.07
2023-11-15T22:31:27.427Z,56.97
2023-11-15T22:33:54.682Z,55.87
2023-11-15T22:36:21.558Z,55.25
2023-11-15T22:38:50.397Z,55.64
2023-11-15T22:41:18.026Z,56.04
2023-11-15T22:43:44.923Z,56.58
2023-11-15T22:46:11.612Z,55.63
2023-11-15T22:48:38.485Z,56.00
2023-11-15T22:51:05.648Z,54.78
2023-11-15T22:53:32.332Z,54.48
2023-11-15T22:55:58.961Z,54.60
2023-11-15T22:58:25.688Z,54.98
2023-11-15T23:00:54.799Z,55.70
2023-11-15T23:03:21.925Z,55.91
2023-11-15T23:05:49.927Z,54.51
2023-11-15T23:08:18.225Z,53.90
2023-11-15T23:10:45.013Z,54.92
2023-11-15T23:13:11.674Z,56.01
2023-11-15T23:15:39.445Z,55.78
2023-11-15T23:18:06.372Z,54.64
2023-11-15T23:20:37.109Z,56.32
2023-11-15T23:23:05.707Z,54.39
2023-11-15T23:25:34.369Z,53.76
2023-11-15T23:28:02.347Z,55.24
2023-11-15T23:30:29.196Z,55.73
2023-11-15T23:32:56.216Z,54.25
2023-11-15T23:35:23.397Z,57.36
2023-11-15T23:37:50.674Z,57.29
2023-11-15T23:40:19.144Z,57.12
2023-11-15T23:42:47.541Z,57.41
2023-11-15T23:45:15.848Z,57.31
2023-11-15T23:47:43.223Z,56.89
2023-11-15T23:50:10.726Z,57.98
2023-11-15T23:52:38.012Z,56.04
2023-11-15T23:55:05.587Z,55.46
2023-11-15T23:57:33.719Z,53.82
